sensor_id;sensor_type;location;lat;lon;timestamp;P1;durP1;ratioP1;P2;durP2;ratioP2
13607;SDS011;6875;50.852;5.672;2024-03-22T00:00:44;54.43;;;29.70;;
13607;SDS011;6875;50.852;5.672;2024-03-22T00:03:14;52.33;;;29.57;;
13607;SDS011;6875;50.852;5.672;2024-03-22T00:05:42;52.73;;;30.20;;
13607;SDS011;6875;50.852;5.672;2024-03-22T00:08:09;57.67;;;31.40;;
13607;SDS011;6875;50.852;5.672;2024-03-22T00:10:37;52.67;;;30.57;;
13607;SDS011;6875;50.852;5.672;2024-03-22T00:13:10;57.10;;;31.20;;
13607;SDS011;6875;50.852;5.672;2024-03-22T00:15:36;54.67;;;30.77;;
13607;SDS011;6875;50.852;5.672;2024-03-22T00:18:04;57.83;;;31.03;;
13607;SDS011;6875;50.852;5.672;2024-03-22T00:20:30;53.13;;;29.17;;
13607;SDS011;6875;50.852;5.672;2024-03-22T00:23:00;51.37;;;30.00;;
13607;SDS011;6875;50.852;5.672;2024-03-22T00:25:27;53.33;;;30.70;;
13607;SDS011;6875;50.852;5.672;2024-03-22T00:27:57;57.53;;;31.87;;
13607;SDS011;6875;50.852;5.672;2024-03-22T00:30:32;51.50;;;30.03;;
13607;SDS011;6875;50.852;5.672;2024-03-22T00:33:02;55.07;;;31.23;;
13607;SDS011;6875;50.852;5.672;2024-03-22T00:35:30;52.33;;;29.50;;
13607;SDS011;6875;50.852;5.672;2024-03-22T00:38:04;54.77;;;32.47;;
13607;SDS011;6875;50.852;5.672;2024-03-22T00:40:30;48.30;;;27.20;;
13607;SDS011;6875;50.852;5.672;2024-03-22T00:42:58;55.07;;;30.97;;
13607;SDS011;6875;50.852;5.672;2024-03-22T00:45:29;50.83;;;30.83;;
13607;SDS011;6875;50.852;5.672;2024-03-22T00:47:58;49.37;;;29.50;;
13607;SDS011;6875;50.852;5.672;2024-03-22T00:50:30;51.17;;;29.53;;
13607;SDS011;6875;50.852;5.672;2024-03-22T00:52:57;49.73;;;29.53;;
13607;SDS011;6875;50.852;5.672;2024-03-22T00:55:26;54.70;;;31.07;;
13607;SDS011;6875;50.852;5.672;2024-03-22T00:58:03;47.17;;;28.17;;
13607;SDS011;6875;50.852;5.672;2024-03-22T01:00:32;50.23;;;30.70;;
13607;SDS011;6875;50.852;5.672;2024-03-22T01:03:04;51.53;;;29.77;;
13607;SDS011;6875;50.852;5.672;2024-03-22T01:05:35;51.47;;;30.83;;
13607;SDS011;6875;50.852;5.672;2024-03-22T01:08:04;52.33;;;30.67;;
13607;SDS011;6875;50.852;5.672;2024-03-22T01:10:32;46.30;;;28.63;;
13607;SDS011;6875;50.852;5.672;2024-03-22T01:13:04;48.90;;;28.47;;
13607;SDS011;6875;50.852;5.672;2024-03-22T01:15:31;50.37;;;30.27;;
13607;SDS011;6875;50.852;5.672;2024-03-22T01:17:58;57.83;;;31.50;;
13607;SDS011;6875;50.852;5.672;2024-03-22T01:20:26;53.57;;;31.13;;
13607;SDS011;6875;50.852;5.672;2024-03-22T01:22:53;54.33;;;30.43;;
13607;SDS011;6875;50.852;5.672;2024-03-22T01:25:23;52.23;;;30.90;;
13607;SDS011;6875;50.852;5.672;2024-03-22T01:27:53;52.60;;;31.07;;
13607;SDS011;6875;50.852;5.672;2024-03-22T01:30:21;52.00;;;30.33;;
13607;SDS011;6875;50.852;5.672;2024-03-22T01:32:53;50.53;;;30.47;;
13607;SDS011;6875;50.852;5.672;2024-03-22T01:35:19;52.77;;;30.37;;
13607;SDS011;6875;50.852;5.672;2024-03-22T01:37:48;51.93;;;30.83;;
13607;SDS011;6875;50.852;5.672;2024-03-22T01:40:19;52.37;;;29.83;;
13607;SDS011;6875;50.852;5.672;2024-03-22T01:42:46;50.87;;;31.37;;
13607;SDS011;6875;50.852;5.672;2024-03-22T01:45:12;53.60;;;31.57;;
13607;SDS011;6875;50.852;5.672;2024-03-22T01:47:43;51.67;;;30.13;;
13607;SDS011;6875;50.852;5.672;2024-03-22T01:50:10;50.20;;;29.93;;
13607;SDS011;6875;50.852;5.672;2024-03-22T01:52:38;46.70;;;29.33;;
13607;SDS011;6875;50.852;5.672;2024-03-22T01:55:06;55.97;;;31.27;;
13607;SDS011;6875;50.852;5.672;2024-03-22T01:57:40;50.27;;;30.33;;
13607;SDS011;6875;50.852;5.672;2024-03-22T02:00:06;51.67;;;31.60;;
13607;SDS011;6875;50.852;5.672;2024-03-22T02:02:36;53.00;;;31.10;;
13607;SDS011;6875;50.852;5.672;2024-03-22T02:05:11;51.80;;;30.83;;
13607;SDS011;6875;50.852;5.672;2024-03-22T02:07:47;52.10;;;31.40;;
13607;SDS011;6875;50.852;5.672;2024-03-22T02:10:17;53.53;;;31.63;;
13607;SDS011;6875;50.852;5.672;2024-03-22T02:12:45;48.10;;;30.03;;
13607;SDS011;6875;50.852;5.672;2024-03-22T02:15:18;53.60;;;32.23;;
13607;SDS011;6875;50.852;5.672;2024-03-22T02:17:48;48.23;;;30.23;;
13607;SDS011;6875;50.852;5.672;2024-03-22T02:20:14;52.10;;;31.13;;
13607;SDS011;6875;50.852;5.672;2024-03-22T02:22:41;49.37;;;30.30;;
13607;SDS011;6875;50.852;5.672;2024-03-22T02:25:09;51.43;;;32.00;;
13607;SDS011;6875;50.852;5.672;2024-03-22T02:27:36;49.57;;;31.73;;
13607;SDS011;6875;50.852;5.672;2024-03-22T02:30:03;49.73;;;30.10;;
13607;SDS011;6875;50.852;5.672;2024-03-22T02:32:34;50.83;;;29.77;;
13607;SDS011;6875;50.852;5.672;2024-03-22T02:35:06;47.07;;;29.00;;
13607;SDS011;6875;50.852;5.672;2024-03-22T02:37:33;49.53;;;28.77;;
13607;SDS011;6875;50.852;5.672;2024-03-22T02:40:01;46.77;;;29.03;;
13607;SDS011;6875;50.852;5.672;2024-03-22T02:42:32;51.23;;;28.47;;
13607;SDS011;6875;50.852;5.672;2024-03-22T02:45:00;51.33;;;30.53;;
13607;SDS011;6875;50.852;5.672;2024-03-22T02:47:27;46.90;;;29.83;;
13607;SDS011;6875;50.852;5.672;2024-03-22T02:49:52;49.97;;;29.97;;
13607;SDS011;6875;50.852;5.672;2024-03-22T02:52:19;52.47;;;29.93;;
13607;SDS011;6875;50.852;5.672;2024-03-22T02:54:45;45.47;;;27.67;;
13607;SDS011;6875;50.852;5.672;2024-03-22T02:57:12;46.67;;;28.30;;
13607;SDS011;6875;50.852;5.672;2024-03-22T02:59:39;43.13;;;27.70;;
13607;SDS011;6875;50.852;5.672;2024-03-22T03:02:06;40.70;;;25.30;;
13607;SDS011;6875;50.852;5.672;2024-03-22T03:04:32;45.27;;;26.73;;
13607;SDS011;6875;50.852;5.672;2024-03-22T03:06:59;43.17;;;26.37;;
13607;SDS011;6875;50.852;5.672;2024-03-22T03:09:34;38.67;;;26.00;;
13607;SDS011;6875;50.852;5.672;2024-03-22T03:12:03;39.87;;;26.10;;
13607;SDS011;6875;50.852;5.672;2024-03-22T03:14:32;45.20;;;26.77;;
13607;SDS011;6875;50.852;5.672;2024-03-22T03:17:01;41.13;;;26.57;;
13607;SDS011;6875;50.852;5.672;2024-03-22T03:19:26;40.03;;;25.67;;
13607;SDS011;6875;50.852;5.672;2024-03-22T03:21:56;40.00;;;24.90;;
13607;SDS011;6875;50.852;5.672;2024-03-22T03:24:28;38.47;;;25.67;;
13607;SDS011;6875;50.852;5.672;2024-03-22T03:26:56;38.90;;;24.20;;
13607;SDS011;6875;50.852;5.672;2024-03-22T03:29:22;41.70;;;25.57;;
13607;SDS011;6875;50.852;5.672;2024-03-22T03:31:51;40.30;;;24.23;;
13607;SDS011;6875;50.852;5.672;2024-03-22T03:34:19;38.47;;;25.10;;
13607;SDS011;6875;50.852;5.672;2024-03-22T03:36:46;44.47;;;28.37;;
13607;SDS011;6875;50.852;5.672;2024-03-22T03:39:14;45.43;;;26.53;;
13607;SDS011;6875;50.852;5.672;2024-03-22T03:41:42;40.10;;;27.57;;
13607;SDS011;6875;50.852;5.672;2024-03-22T03:44:10;43.40;;;26.47;;
13607;SDS011;6875;50.852;5.672;2024-03-22T03:46:38;44.53;;;24.63;;
13607;SDS011;6875;50.852;5.672;2024-03-22T03:49:04;39.17;;;23.47;;
13607;SDS011;6875;50.852;5.672;2024-03-22T03:51:34;38.57;;;24.03;;
13607;SDS011;6875;50.852;5.672;2024-03-22T03:54:00;35.33;;;22.10;;
13607;SDS011;6875;50.852;5.672;2024-03-22T03:56:27;35.47;;;22.23;;
13607;SDS011;6875;50.852;5.672;2024-03-22T03:58:54;34.37;;;21.67;;
13607;SDS011;6875;50.852;5.672;2024-03-22T04:01:24;33.70;;;22.53;;
13607;SDS011;6875;50.852;5.672;2024-03-22T04:03:55;34.93;;;20.93;;
13607;SDS011;6875;50.852;5.672;2024-03-22T04:06:22;32.87;;;22.27;;
13607;SDS011;6875;50.852;5.672;2024-03-22T04:08:49;30.10;;;19.80;;
13607;SDS011;6875;50.852;5.672;2024-03-22T04:11:18;32.33;;;20.23;;
13607;SDS011;6875;50.852;5.672;2024-03-22T04:13:47;34.30;;;21.20;;
13607;SDS011;6875;50.852;5.672;2024-03-22T04:16:14;28.07;;;18.43;;
13607;SDS011;6875;50.852;5.672;2024-03-22T04:18:43;32.33;;;20.07;;
13607;SDS011;6875;50.852;5.672;2024-03-22T04:21:18;29.57;;;19.03;;
13607;SDS011;6875;50.852;5.672;2024-03-22T04:24:00;31.90;;;18.57;;
13607;SDS011;6875;50.852;5.672;2024-03-22T04:26:28;31.17;;;18.53;;
13607;SDS011;6875;50.852;5.672;2024-03-22T04:28:56;26.83;;;18.07;;
13607;SDS011;6875;50.852;5.672;2024-03-22T04:31:25;32.50;;;18.93;;
13607;SDS011;6875;50.852;5.672;2024-03-22T04:33:51;31.63;;;18.20;;
13607;SDS011;6875;50.852;5.672;2024-03-22T04:36:21;32.33;;;18.87;;
13607;SDS011;6875;50.852;5.672;2024-03-22T04:38:49;30.00;;;18.00;;
13607;SDS011;6875;50.852;5.672;2024-03-22T04:41:29;32.33;;;19.60;;
13607;SDS011;6875;50.852;5.672;2024-03-22T04:43:56;29.50;;;18.37;;
13607;SDS011;6875;50.852;5.672;2024-03-22T04:46:25;32.10;;;20.57;;
13607;SDS011;6875;50.852;5.672;2024-03-22T04:48:51;32.27;;;21.07;;
13607;SDS011;6875;50.852;5.672;2024-03-22T04:51:27;37.40;;;21.80;;
13607;SDS011;6875;50.852;5.672;2024-03-22T04:53:59;37.40;;;21.30;;
13607;SDS011;6875;50.852;5.672;2024-03-22T04:56:26;32.40;;;19.30;;
13607;SDS011;6875;50.852;5.672;2024-03-22T04:58:53;32.17;;;19.47;;
13607;SDS011;6875;50.852;5.672;2024-03-22T05:01:29;30.17;;;18.17;;
13607;SDS011;6875;50.852;5.672;2024-03-22T05:04:01;34.83;;;19.97;;
13607;SDS011;6875;50.852;5.672;2024-03-22T05:06:30;30.10;;;19.73;;
13607;SDS011;6875;50.852;5.672;2024-03-22T05:08:55;31.13;;;18.17;;
13607;SDS011;6875;50.852;5.672;2024-03-22T05:11:23;31.57;;;19.63;;
13607;SDS011;6875;50.852;5.672;2024-03-22T05:13:58;29.70;;;18.87;;
13607;SDS011;6875;50.852;5.672;2024-03-22T05:16:25;30.00;;;18.30;;
13607;SDS011;6875;50.852;5.672;2024-03-22T05:18:54;28.17;;;17.67;;
13607;SDS011;6875;50.852;5.672;2024-03-22T05:21:24;30.53;;;18.67;;
13607;SDS011;6875;50.852;5.672;2024-03-22T05:23:53;26.07;;;17.27;;
13607;SDS011;6875;50.852;5.672;2024-03-22T05:26:24;31.60;;;19.07;;
13607;SDS011;6875;50.852;5.672;2024-03-22T05:28:52;32.73;;;18.33;;
13607;SDS011;6875;50.852;5.672;2024-03-22T05:31:27;31.73;;;18.63;;
13607;SDS011;6875;50.852;5.672;2024-03-22T05:34:00;31.67;;;18.70;;
13607;SDS011;6875;50.852;5.672;2024-03-22T05:36:31;31.53;;;18.77;;
13607;SDS011;6875;50.852;5.672;2024-03-22T05:39:02;33.23;;;19.20;;
13607;SDS011;6875;50.852;5.672;2024-03-22T05:41:30;30.37;;;18.33;;
13607;SDS011;6875;50.852;5.672;2024-03-22T05:43:58;31.10;;;19.67;;
13607;SDS011;6875;50.852;5.672;2024-03-22T05:46:33;27.53;;;18.17;;
13607;SDS011;6875;50.852;5.672;2024-03-22T05:48:59;32.13;;;21.03;;
13607;SDS011;6875;50.852;5.672;2024-03-22T05:51:32;31.00;;;19.07;;
13607;SDS011;6875;50.852;5.672;2024-03-22T05:54:01;31.10;;;19.17;;
13607;SDS011;6875;50.852;5.672;2024-03-22T05:56:28;30.83;;;17.90;;
13607;SDS011;6875;50.852;5.672;2024-03-22T05:58:57;35.27;;;19.97;;
13607;SDS011;6875;50.852;5.672;2024-03-22T06:01:26;30.30;;;19.57;;
13607;SDS011;6875;50.852;5.672;2024-03-22T06:03:53;32.87;;;19.97;;
13607;SDS011;6875;50.852;5.672;2024-03-22T06:06:22;29.03;;;19.40;;
13607;SDS011;6875;50.852;5.672;2024-03-22T06:08:54;29.70;;;18.47;;
13607;SDS011;6875;50.852;5.672;2024-03-22T06:11:27;35.17;;;20.57;;
13607;SDS011;6875;50.852;5.672;2024-03-22T06:13:53;31.30;;;18.90;;
13607;SDS011;6875;50.852;5.672;2024-03-22T06:16:38;31.93;;;19.07;;
13607;SDS011;6875;50.852;5.672;2024-03-22T06:19:08;32.13;;;20.13;;
13607;SDS011;6875;50.852;5.672;2024-03-22T06:21:35;29.70;;;19.33;;
13607;SDS011;6875;50.852;5.672;2024-03-22T06:24:01;30.90;;;20.00;;
13607;SDS011;6875;50.852;5.672;2024-03-22T06:26:30;29.03;;;18.70;;
13607;SDS011;6875;50.852;5.672;2024-03-22T06:28:55;30.33;;;19.83;;
13607;SDS011;6875;50.852;5.672;2024-03-22T06:31:29;30.20;;;20.10;;
13607;SDS011;6875;50.852;5.672;2024-03-22T06:33:55;30.17;;;19.03;;
13607;SDS011;6875;50.852;5.672;2024-03-22T06:36:28;32.70;;;20.13;;
13607;SDS011;6875;50.852;5.672;2024-03-22T06:38:58;30.83;;;19.23;;
13607;SDS011;6875;50.852;5.672;2024-03-22T06:41:31;29.30;;;19.17;;
13607;SDS011;6875;50.852;5.672;2024-03-22T06:43:57;31.03;;;20.23;;
13607;SDS011;6875;50.852;5.672;2024-03-22T06:46:25;31.03;;;19.30;;
13607;SDS011;6875;50.852;5.672;2024-03-22T06:48:54;31.87;;;19.40;;
13607;SDS011;6875;50.852;5.672;2024-03-22T06:51:32;36.73;;;21.77;;
13607;SDS011;6875;50.852;5.672;2024-03-22T06:53:58;31.33;;;19.63;;
13607;SDS011;6875;50.852;5.672;2024-03-22T06:56:27;30.03;;;18.87;;
13607;SDS011;6875;50.852;5.672;2024-03-22T06:58:52;31.10;;;19.83;;
13607;SDS011;6875;50.852;5.672;2024-03-22T07:01:22;30.53;;;18.23;;
13607;SDS011;6875;50.852;5.672;2024-03-22T07:03:54;33.07;;;19.47;;
13607;SDS011;6875;50.852;5.672;2024-03-22T07:06:21;28.67;;;19.47;;
13607;SDS011;6875;50.852;5.672;2024-03-22T07:08:48;28.73;;;18.30;;
13607;SDS011;6875;50.852;5.672;2024-03-22T07:11:17;31.10;;;19.60;;
13607;SDS011;6875;50.852;5.672;2024-03-22T07:13:43;27.63;;;19.23;;
13607;SDS011;6875;50.852;5.672;2024-03-22T07:16:10;30.00;;;19.00;;
13607;SDS011;6875;50.852;5.672;2024-03-22T07:18:36;27.00;;;17.70;;
13607;SDS011;6875;50.852;5.672;2024-03-22T07:21:03;29.57;;;18.80;;
13607;SDS011;6875;50.852;5.672;2024-03-22T07:23:29;28.23;;;18.03;;
13607;SDS011;6875;50.852;5.672;2024-03-22T07:26:03;27.83;;;18.43;;
13607;SDS011;6875;50.852;5.672;2024-03-22T07:28:31;27.33;;;18.43;;
13607;SDS011;6875;50.852;5.672;2024-03-22T07:31:00;27.80;;;18.97;;
13607;SDS011;6875;50.852;5.672;2024-03-22T07:33:31;25.37;;;18.43;;
13607;SDS011;6875;50.852;5.672;2024-03-22T07:36:01;28.83;;;17.70;;
13607;SDS011;6875;50.852;5.672;2024-03-22T07:38:27;28.10;;;18.80;;
13607;SDS011;6875;50.852;5.672;2024-03-22T07:40:54;27.90;;;18.33;;
13607;SDS011;6875;50.852;5.672;2024-03-22T07:43:24;27.03;;;17.57;;
13607;SDS011;6875;50.852;5.672;2024-03-22T07:45:54;24.33;;;16.77;;
13607;SDS011;6875;50.852;5.672;2024-03-22T07:48:22;26.00;;;17.93;;
13607;SDS011;6875;50.852;5.672;2024-03-22T07:50:55;25.67;;;17.97;;
13607;SDS011;6875;50.852;5.672;2024-03-22T07:53:21;26.63;;;18.30;;
13607;SDS011;6875;50.852;5.672;2024-03-22T07:55:49;25.73;;;16.83;;
13607;SDS011;6875;50.852;5.672;2024-03-22T07:58:18;28.30;;;17.77;;
13607;SDS011;6875;50.852;5.672;2024-03-22T08:00:49;26.60;;;17.43;;
13607;SDS011;6875;50.852;5.672;2024-03-22T08:03:21;23.30;;;16.87;;
13607;SDS011;6875;50.852;5.672;2024-03-22T08:05:57;24.20;;;16.40;;
13607;SDS011;6875;50.852;5.672;2024-03-22T08:08:28;23.83;;;15.20;;
13607;SDS011;6875;50.852;5.672;2024-03-22T08:10:56;24.83;;;15.57;;
13607;SDS011;6875;50.852;5.672;2024-03-22T08:13:28;25.20;;;15.77;;
13607;SDS011;6875;50.852;5.672;2024-03-22T08:16:02;22.90;;;15.87;;
13607;SDS011;6875;50.852;5.672;2024-03-22T08:18:35;21.03;;;14.17;;
13607;SDS011;6875;50.852;5.672;2024-03-22T08:21:02;24.63;;;15.57;;
13607;SDS011;6875;50.852;5.672;2024-03-22T08:23:29;23.60;;;14.67;;
13607;SDS011;6875;50.852;5.672;2024-03-22T08:25:57;23.03;;;15.03;;
13607;SDS011;6875;50.852;5.672;2024-03-22T08:28:30;23.90;;;14.87;;
13607;SDS011;6875;50.852;5.672;2024-03-22T08:30:59;22.43;;;14.27;;
13607;SDS011;6875;50.852;5.672;2024-03-22T08:33:29;20.30;;;12.93;;
13607;SDS011;6875;50.852;5.672;2024-03-22T08:35:59;23.37;;;14.50;;
13607;SDS011;6875;50.852;5.672;2024-03-22T08:38:26;19.83;;;13.80;;
13607;SDS011;6875;50.852;5.672;2024-03-22T08:41:33;20.20;;;13.10;;
13607;SDS011;6875;50.852;5.672;2024-03-22T08:43:48;19.00;;;12.60;;
13607;SDS011;6875;50.852;5.672;2024-03-22T08:46:16;19.57;;;13.53;;
13607;SDS011;6875;50.852;5.672;2024-03-22T08:48:48;18.93;;;12.83;;
13607;SDS011;6875;50.852;5.672;2024-03-22T08:51:24;20.63;;;13.03;;
13607;SDS011;6875;50.852;5.672;2024-03-22T08:53:52;20.43;;;13.00;;
13607;SDS011;6875;50.852;5.672;2024-03-22T08:56:22;21.07;;;13.37;;
13607;SDS011;6875;50.852;5.672;2024-03-22T08:58:48;25.23;;;14.13;;
13607;SDS011;6875;50.852;5.672;2024-03-22T09:01:18;20.93;;;13.17;;
13607;SDS011;6875;50.852;5.672;2024-03-22T09:03:44;21.60;;;13.83;;
13607;SDS011;6875;50.852;5.672;2024-03-22T09:06:11;24.73;;;12.97;;
13607;SDS011;6875;50.852;5.672;2024-03-22T09:08:37;21.23;;;13.53;;
13607;SDS011;6875;50.852;5.672;2024-03-22T09:11:06;19.93;;;13.10;;
13607;SDS011;6875;50.852;5.672;2024-03-22T09:13:32;26.10;;;14.83;;
13607;SDS011;6875;50.852;5.672;2024-03-22T09:16:02;23.67;;;13.87;;
13607;SDS011;6875;50.852;5.672;2024-03-22T09:18:30;23.47;;;13.57;;
13607;SDS011;6875;50.852;5.672;2024-03-22T09:20:59;25.20;;;14.60;;
13607;SDS011;6875;50.852;5.672;2024-03-22T09:23:29;19.03;;;13.17;;
13607;SDS011;6875;50.852;5.672;2024-03-22T09:26:00;22.37;;;14.50;;
13607;SDS011;6875;50.852;5.672;2024-03-22T09:28:29;23.60;;;14.27;;
13607;SDS011;6875;50.852;5.672;2024-03-22T09:31:03;22.90;;;14.83;;
13607;SDS011;6875;50.852;5.672;2024-03-22T09:33:33;23.10;;;14.80;;
13607;SDS011;6875;50.852;5.672;2024-03-22T09:36:02;27.27;;;13.40;;
13607;SDS011;6875;50.852;5.672;2024-03-22T09:38:29;25.53;;;15.57;;
13607;SDS011;6875;50.852;5.672;2024-03-22T09:40:56;21.83;;;13.63;;
13607;SDS011;6875;50.852;5.672;2024-03-22T09:43:22;23.13;;;14.43;;
13607;SDS011;6875;50.852;5.672;2024-03-22T09:45:52;23.07;;;14.20;;
13607;SDS011;6875;50.852;5.672;2024-03-22T09:48:19;22.17;;;13.43;;
13607;SDS011;6875;50.852;5.672;2024-03-22T09:50:58;21.80;;;15.73;;
13607;SDS011;6875;50.852;5.672;2024-03-22T09:53:27;23.47;;;14.93;;
13607;SDS011;6875;50.852;5.672;2024-03-22T09:55:56;24.67;;;15.27;;
13607;SDS011;6875;50.852;5.672;2024-03-22T09:58:27;22.73;;;14.67;;
13607;SDS011;6875;50.852;5.672;2024-03-22T10:00:55;21.93;;;14.13;;
13607;SDS011;6875;50.852;5.672;2024-03-22T10:03:25;22.80;;;14.07;;
13607;SDS011;6875;50.852;5.672;2024-03-22T10:05:55;23.50;;;14.17;;
13607;SDS011;6875;50.852;5.672;2024-03-22T10:08:25;23.53;;;15.13;;
13607;SDS011;6875;50.852;5.672;2024-03-22T10:10:55;22.03;;;14.40;;
13607;SDS011;6875;50.852;5.672;2024-03-22T10:13:21;21.97;;;12.93;;
13607;SDS011;6875;50.852;5.672;2024-03-22T10:15:57;23.57;;;14.90;;
13607;SDS011;6875;50.852;5.672;2024-03-22T10:18:26;20.70;;;12.97;;
13607;SDS011;6875;50.852;5.672;2024-03-22T10:21:01;27.70;;;15.30;;
13607;SDS011;6875;50.852;5.672;2024-03-22T10:23:29;25.13;;;15.20;;
13607;SDS011;6875;50.852;5.672;2024-03-22T10:25:56;26.07;;;15.47;;
13607;SDS011;6875;50.852;5.672;2024-03-22T10:28:28;25.30;;;14.17;;
13607;SDS011;6875;50.852;5.672;2024-03-22T10:30:57;27.20;;;16.43;;
13607;SDS011;6875;50.852;5.672;2024-03-22T10:33:25;30.83;;;17.57;;
13607;SDS011;6875;50.852;5.672;2024-03-22T10:35:53;25.40;;;15.97;;
13607;SDS011;6875;50.852;5.672;2024-03-22T10:38:23;24.63;;;17.20;;
13607;SDS011;6875;50.852;5.672;2024-03-22T10:40:58;36.07;;;19.10;;
13607;SDS011;6875;50.852;5.672;2024-03-22T10:43:26;28.07;;;17.10;;
13607;SDS011;6875;50.852;5.672;2024-03-22T10:46:00;37.70;;;21.60;;
13607;SDS011;6875;50.852;5.672;2024-03-22T10:48:31;34.73;;;21.03;;
13607;SDS011;6875;50.852;5.672;2024-03-22T10:50:59;29.57;;;19.73;;
13607;SDS011;6875;50.852;5.672;2024-03-22T10:56:48;38.73;;;22.63;;
13607;SDS011;6875;50.852;5.672;2024-03-22T10:59:18;35.97;;;19.33;;
13607;SDS011;6875;50.852;5.672;2024-03-22T11:01:49;38.83;;;21.10;;
13607;SDS011;6875;50.852;5.672;2024-03-22T11:04:30;33.17;;;20.20;;
13607;SDS011;6875;50.852;5.672;2024-03-22T11:06:57;32.03;;;19.70;;
13607;SDS011;6875;50.852;5.672;2024-03-22T11:09:29;38.03;;;20.80;;
13607;SDS011;6875;50.852;5.672;2024-03-22T11:12:01;29.97;;;20.00;;
13607;SDS011;6875;50.852;5.672;2024-03-22T11:14:29;38.53;;;20.20;;
13607;SDS011;6875;50.852;5.672;2024-03-22T11:16:56;33.17;;;18.83;;
13607;SDS011;6875;50.852;5.672;2024-03-22T11:19:22;34.47;;;20.37;;
13607;SDS011;6875;50.852;5.672;2024-03-22T11:21:49;29.10;;;18.60;;
13607;SDS011;6875;50.852;5.672;2024-03-22T11:24:15;33.63;;;19.17;;
13607;SDS011;6875;50.852;5.672;2024-03-22T11:26:42;29.37;;;17.77;;
13607;SDS011;6875;50.852;5.672;2024-03-22T11:29:14;29.83;;;17.90;;
13607;SDS011;6875;50.852;5.672;2024-03-22T11:31:41;30.37;;;17.17;;
13607;SDS011;6875;50.852;5.672;2024-03-22T11:34:09;26.00;;;16.83;;
13607;SDS011;6875;50.852;5.672;2024-03-22T11:36:36;24.27;;;15.47;;
13607;SDS011;6875;50.852;5.672;2024-03-22T11:39:05;25.00;;;16.33;;
13607;SDS011;6875;50.852;5.672;2024-03-22T11:41:47;26.63;;;15.80;;
13607;SDS011;6875;50.852;5.672;2024-03-22T11:44:15;29.20;;;16.90;;
13607;SDS011;6875;50.852;5.672;2024-03-22T11:46:46;27.20;;;16.77;;
13607;SDS011;6875;50.852;5.672;2024-03-22T11:49:13;20.50;;;15.23;;
13607;SDS011;6875;50.852;5.672;2024-03-22T11:51:40;28.03;;;16.50;;
13607;SDS011;6875;50.852;5.672;2024-03-22T11:54:11;21.23;;;15.00;;
13607;SDS011;6875;50.852;5.672;2024-03-22T11:56:39;24.13;;;15.43;;
13607;SDS011;6875;50.852;5.672;2024-03-22T11:59:08;20.47;;;13.97;;
13607;SDS011;6875;50.852;5.672;2024-03-22T12:01:36;24.40;;;13.83;;
13607;SDS011;6875;50.852;5.672;2024-03-22T12:04:05;26.97;;;15.70;;
13607;SDS011;6875;50.852;5.672;2024-03-22T12:06:34;23.17;;;15.20;;
13607;SDS011;6875;50.852;5.672;2024-03-22T12:09:00;24.17;;;15.47;;
13607;SDS011;6875;50.852;5.672;2024-03-22T12:11:32;21.80;;;15.37;;
13607;SDS011;6875;50.852;5.672;2024-03-22T12:14:00;23.80;;;15.30;;
13607;SDS011;6875;50.852;5.672;2024-03-22T12:17:11;22.63;;;14.57;;
13607;SDS011;6875;50.852;5.672;2024-03-22T12:19:38;21.97;;;15.37;;
13607;SDS011;6875;50.852;5.672;2024-03-22T12:22:04;25.00;;;14.47;;
13607;SDS011;6875;50.852;5.672;2024-03-22T12:24:34;21.17;;;13.93;;
13607;SDS011;6875;50.852;5.672;2024-03-22T12:27:07;21.07;;;12.80;;
13607;SDS011;6875;50.852;5.672;2024-03-22T12:29:34;18.67;;;12.63;;
13607;SDS011;6875;50.852;5.672;2024-03-22T12:32:02;16.90;;;12.20;;
13607;SDS011;6875;50.852;5.672;2024-03-22T12:34:31;15.50;;;11.43;;
13607;SDS011;6875;50.852;5.672;2024-03-22T12:36:58;14.07;;;9.63;;
13607;SDS011;6875;50.852;5.672;2024-03-22T12:39:44;12.37;;;10.03;;
13607;SDS011;6875;50.852;5.672;2024-03-22T12:42:12;13.70;;;9.70;;
13607;SDS011;6875;50.852;5.672;2024-03-22T12:44:39;13.17;;;9.60;;
13607;SDS011;6875;50.852;5.672;2024-03-22T12:47:05;13.17;;;10.00;;
13607;SDS011;6875;50.852;5.672;2024-03-22T12:49:36;10.77;;;8.33;;
13607;SDS011;6875;50.852;5.672;2024-03-22T12:52:05;13.67;;;9.00;;
13607;SDS011;6875;50.852;5.672;2024-03-22T12:54:36;13.53;;;9.13;;
13607;SDS011;6875;50.852;5.672;2024-03-22T12:57:02;11.70;;;8.70;;
13607;SDS011;6875;50.852;5.672;2024-03-22T12:59:29;11.03;;;8.50;;
13607;SDS011;6875;50.852;5.672;2024-03-22T13:01:57;10.40;;;8.57;;
13607;SDS011;6875;50.852;5.672;2024-03-22T13:04:32;13.33;;;8.30;;
13607;SDS011;6875;50.852;5.672;2024-03-22T13:07:04;12.97;;;9.57;;
13607;SDS011;6875;50.852;5.672;2024-03-22T13:09:31;11.63;;;9.10;;
13607;SDS011;6875;50.852;5.672;2024-03-22T13:11:57;12.40;;;8.70;;
13607;SDS011;6875;50.852;5.672;2024-03-22T13:14:24;22.10;;;10.73;;
13607;SDS011;6875;50.852;5.672;2024-03-22T13:16:51;17.90;;;12.37;;
13607;SDS011;6875;50.852;5.672;2024-03-22T13:19:18;20.63;;;13.13;;
13607;SDS011;6875;50.852;5.672;2024-03-22T13:21:46;23.57;;;13.77;;
13607;SDS011;6875;50.852;5.672;2024-03-22T13:24:16;18.50;;;11.63;;
13607;SDS011;6875;50.852;5.672;2024-03-22T13:26:41;15.47;;;10.87;;
13607;SDS011;6875;50.852;5.672;2024-03-22T13:29:08;18.90;;;12.37;;
13607;SDS011;6875;50.852;5.672;2024-03-22T13:31:34;22.27;;;12.07;;
13607;SDS011;6875;50.852;5.672;2024-03-22T13:34:01;20.07;;;12.97;;
13607;SDS011;6875;50.852;5.672;2024-03-22T13:36:27;20.33;;;12.37;;
13607;SDS011;6875;50.852;5.672;2024-03-22T13:38:57;22.00;;;12.40;;
13607;SDS011;6875;50.852;5.672;2024-03-22T13:41:24;19.97;;;12.13;;
13607;SDS011;6875;50.852;5.672;2024-03-22T13:43:57;19.17;;;12.57;;
13607;SDS011;6875;50.852;5.672;2024-03-22T13:46:33;20.27;;;12.53;;
13607;SDS011;6875;50.852;5.672;2024-03-22T13:49:01;23.57;;;13.20;;
13607;SDS011;6875;50.852;5.672;2024-03-22T13:51:27;21.13;;;12.00;;
13607;SDS011;6875;50.852;5.672;2024-03-22T13:53:57;26.37;;;13.60;;
13607;SDS011;6875;50.852;5.672;2024-03-22T13:56:24;18.17;;;12.33;;
13607;SDS011;6875;50.852;5.672;2024-03-22T13:58:53;20.43;;;12.03;;
13607;SDS011;6875;50.852;5.672;2024-03-22T14:01:23;18.60;;;12.07;;
13607;SDS011;6875;50.852;5.672;2024-03-22T14:03:57;17.97;;;12.00;;
13607;SDS011;6875;50.852;5.672;2024-03-22T14:06:26;16.43;;;11.47;;
13607;SDS011;6875;50.852;5.672;2024-03-22T14:08:53;18.70;;;10.90;;
13607;SDS011;6875;50.852;5.672;2024-03-22T14:11:31;18.83;;;11.33;;
13607;SDS011;6875;50.852;5.672;2024-03-22T14:14:01;23.27;;;13.07;;
13607;SDS011;6875;50.852;5.672;2024-03-22T14:16:27;18.67;;;10.87;;
13607;SDS011;6875;50.852;5.672;2024-03-22T14:18:55;22.57;;;12.97;;
13607;SDS011;6875;50.852;5.672;2024-03-22T14:21:24;23.37;;;14.13;;
13607;SDS011;6875;50.852;5.672;2024-03-22T14:23:53;21.17;;;14.17;;
13607;SDS011;6875;50.852;5.672;2024-03-22T14:26:19;22.90;;;14.40;;
13607;SDS011;6875;50.852;5.672;2024-03-22T14:28:48;24.90;;;13.63;;
13607;SDS011;6875;50.852;5.672;2024-03-22T14:31:15;25.37;;;13.83;;
13607;SDS011;6875;50.852;5.672;2024-03-22T14:33:42;26.73;;;15.30;;
13607;SDS011;6875;50.852;5.672;2024-03-22T14:36:17;16.53;;;12.20;;
13607;SDS011;6875;50.852;5.672;2024-03-22T14:38:43;18.33;;;10.83;;
13607;SDS011;6875;50.852;5.672;2024-03-22T14:41:09;15.23;;;10.83;;
13607;SDS011;6875;50.852;5.672;2024-03-22T14:43:37;14.03;;;10.53;;
13607;SDS011;6875;50.852;5.672;2024-03-22T14:46:07;13.03;;;9.67;;
13607;SDS011;6875;50.852;5.672;2024-03-22T14:48:34;12.67;;;8.57;;
13607;SDS011;6875;50.852;5.672;2024-03-22T14:51:00;13.57;;;9.23;;